Terminal Aerodrome Forecast
Issued by NWS

Home | Current Version | Previous Version | Text Only | Print | Product List | Glossary On
Versions: 1 2 3 4 5 6 7 8 9 10 11 12 13 14 15 16 17 18 19 20 21
000
FTAK31 PAJN 101700 RRA
TAFASI
TAF
PASI 101741Z 1018/1118 23005KT P6SM SCT006 OVC035
     FM102200 26006KT P6SM SCT012 BKN035
     FM111000 13004KT P6SM BKN006 OVC180=

USA.gov is the U.S. government's official web portal to all federal, state and local government web resources and services.